Time;durP1;ratioP1;P1;durP2;ratioP2;P2;SDS_P1;SDS_P2;PMS_P1;PMS_P2;Temp;Humidity;BMP_temperature;BMP_pressure;BME280_temperature;BME280_humidity;BME280_pressure;Samples;Min_cycle;Max_cycle;Signal;HPM_P1;HPM_P2
2020/12/13 00:00:45;;;;;;;;;;;;;;;;;;4961155;28;19931;-86
2020/12/13 00:03:13;;;;;;;;;;;;;;;;;;4962798;29;19961;-86
2020/12/13 00:05:41;;;;;;;;;;;;;;;;;;4961456;29;19973;-86
2020/12/13 00:08:08;;;;;;;;;;;;;;;;;;4961856;28;19966;-85
2020/12/13 00:10:38;;;;;;;;;;;;;;;;;;4962843;28;19926;-86
2020/12/13 00:13:06;;;;;;;;;;;;;;;;;;4958886;29;19926;-87
2020/12/13 00:15:43;;;;;;;;;;;;;;;;;;4976315;28;20347;-86
2020/12/13 00:18:12;;;;;;;;;;;;;;;;;;4961546;28;19950;-86
2020/12/13 00:20:40;;;;;;;;;;;;;;;;;;4960819;28;19937;-86
2020/12/13 00:23:08;;;;;;;;;;;;;;;;;;4962760;28;19980;-85
2020/12/13 00:25:35;;;;;;;;;;;;;;;;;;4965703;28;19927;-86
2020/12/13 00:28:02;;;;;;;;;;;;;;;;;;4965456;29;20311;-86
2020/12/13 00:30:30;;;;;;;;;;;;;;;;;;4964484;28;19981;-86
2020/12/13 00:32:58;;;;;;;;;;;;;;;;;;4963065;28;20003;-86
2020/12/13 00:35:25;;;;;;;;;;;;;;;;;;4965469;28;19927;-86
2020/12/13 00:37:52;;;;;;;;;;;;;;;;;;4964729;28;19930;-86
2020/12/13 00:40:20;;;;;;;;;;;;;;;;;;4964818;28;19931;-85
2020/12/13 00:42:48;;;;;;;;;;;;;;;;;;4966689;28;19958;-85
2020/12/13 00:45:16;;;;;;;;;;;;;;;;;;4965866;28;19926;-85
2020/12/13 00:47:43;;;;;;;;;;;;;;;;;;4966782;28;19927;-86
2020/12/13 00:50:11;;;;;;;;;;;;;;;;;;4963606;28;19930;-86
2020/12/13 00:52:40;;;;;;;;;;;;;;;;;;4963821;29;19950;-86
2020/12/13 00:55:07;;;;;;;;;;;;;;;;;;4961897;29;20029;-86
2020/12/13 00:57:34;;;;;;;;;;;;;;;;;;4965319;29;20086;-86
2020/12/13 01:00:01;;;;;;;;;;;;;;;;;;4965319;28;19961;-86
2020/12/13 01:02:29;;;;;;;;;;;;;;;;;;4964827;28;19930;-86
2020/12/13 01:04:56;;;;;;;;;;;;;;;;;;4961821;29;19966;-85
2020/12/13 01:07:23;;;;;;;;;;;;;;;;;;4964992;29;19981;-86
2020/12/13 01:09:50;;;;;;;;;;;;;;;;;;4965914;28;19958;-86
2020/12/13 01:12:19;;;;;;;;;;;;;;;;;;4963543;29;19974;-85
2020/12/13 01:14:46;;;;;;;;;;;;;;;;;;4964711;28;20024;-86
2020/12/13 01:17:13;;;;;;;;;;;;;;;;;;4962903;28;19930;-86
2020/12/13 01:19:47;;;;;;;;;;;;;;;;;;4962854;28;19970;-86
2020/12/13 01:22:14;;;;;;;;;;;;;;;;;;4963976;29;20029;-86
2020/12/13 01:24:43;;;;;;;;;;;;;;;;;;4962386;29;19930;-86
2020/12/13 01:27:11;;;;;;;;;;;;;;;;;;4963308;28;19931;-85
2020/12/13 01:29:38;;;;;;;;;;;;;;;;;;4955240;28;20048;-86
2020/12/13 01:32:05;;;;;;;;;;;;;;;;;;4973220;28;19962;-86
2020/12/13 01:34:32;;;;;;;;;;;;;;;;;;4964403;28;19958;-86
2020/12/13 01:37:00;;;;;;;;;;;;;;;;;;4962277;28;19970;-86
2020/12/13 01:39:27;;;;;;;;;;;;;;;;;;4961642;28;19926;-86
2020/12/13 01:41:55;;;;;;;;;;;;;;;;;;4953237;28;19993;-86
2020/12/13 01:44:22;;;;;;;;;;;;;;;;;;4962105;29;19970;-86
2020/12/13 01:46:50;;;;;;;;;;;;;;;;;;4958058;29;19954;-86
2020/12/13 01:49:17;;;;;;;;;;;;;;;;;;4962353;28;19927;-86
2020/12/13 01:51:51;;;;;;;;;;;;;;;;;;4961893;28;19934;-86
2020/12/13 01:54:19;;;;;;;;;;;;;;;;;;4962753;28;19926;-86
2020/12/13 01:56:47;;;;;;;;;;;;;;;;;;4961978;29;19961;-86
2020/12/13 01:59:14;;;;;;;;;;;;;;;;;;4961628;28;19949;-86
2020/12/13 02:04:15;;;;;;;;;;;;;;;;;;4944528;29;19989;-67
2020/12/13 02:06:42;;;;;;;;;;;;;;;;;;4952780;29;20289;-65
2020/12/13 02:09:09;;;;;;;;;;;;;;;;;;4953198;29;19926;-65
2020/12/13 02:11:36;;;;;;;;;;;;;;;;;;4951707;29;20303;-69
2020/12/13 02:14:04;;;;;;;;;;;;;;;;;;4949502;29;19934;-72
2020/12/13 02:16:31;;;;;;;;;;;;;;;;;;4952918;29;19927;-67
2020/12/13 02:18:59;;;;;;;;;;;;;;;;;;4953853;29;20018;-68
2020/12/13 02:21:26;;;;;;;;;;;;;;;;;;4953737;28;20030;-67
2020/12/13 02:23:53;;;;;;;;;;;;;;;;;;4953778;29;20001;-69
2020/12/13 02:26:21;;;;;;;;;;;;;;;;;;4952900;29;19926;-73
2020/12/13 02:28:48;;;;;;;;;;;;;;;;;;4953911;29;20018;-67
2020/12/13 02:31:15;;;;;;;;;;;;;;;;;;4952893;28;19981;-67
2020/12/13 02:33:42;;;;;;;;;;;;;;;;;;4953004;29;20021;-67
2020/12/13 02:36:09;;;;;;;;;;;;;;;;;;4953626;29;20045;-67
2020/12/13 02:38:36;;;;;;;;;;;;;;;;;;4953691;29;19927;-72
2020/12/13 02:41:03;;;;;;;;;;;;;;;;;;4952966;28;19940;-67
2020/12/13 02:43:30;;;;;;;;;;;;;;;;;;4953137;28;20021;-69
2020/12/13 02:45:57;;;;;;;;;;;;;;;;;;4952356;28;20382;-69
2020/12/13 02:48:25;;;;;;;;;;;;;;;;;;4953791;29;20029;-67
2020/12/13 02:50:52;;;;;;;;;;;;;;;;;;4953058;28;19933;-67
2020/12/13 02:53:19;;;;;;;;;;;;;;;;;;4952515;29;20077;-67
2020/12/13 02:55:46;;;;;;;;;;;;;;;;;;4952300;29;20331;-67
2020/12/13 02:58:13;;;;;;;;;;;;;;;;;;4952852;29;20033;-70
2020/12/13 03:00:41;;;;;;;;;;;;;;;;;;4951552;28;19930;-66
2020/12/13 03:03:08;;;;;;;;;;;;;;;;;;4952998;29;19930;-67
2020/12/13 03:05:35;;;;;;;;;;;;;;;;;;4952616;29;20370;-67
2020/12/13 03:08:02;;;;;;;;;;;;;;;;;;4953264;29;19930;-66
2020/12/13 03:10:29;;;;;;;;;;;;;;;;;;4950987;28;19933;-67
2020/12/13 03:12:56;;;;;;;;;;;;;;;;;;4952470;29;20253;-66
2020/12/13 03:15:23;;;;;;;;;;;;;;;;;;4952639;29;19927;-67
2020/12/13 03:17:50;;;;;;;;;;;;;;;;;;4952475;29;20017;-66
2020/12/13 03:20:17;;;;;;;;;;;;;;;;;;4951998;28;19926;-66
2020/12/13 03:22:44;;;;;;;;;;;;;;;;;;4952360;29;19977;-67
2020/12/13 03:25:12;;;;;;;;;;;;;;;;;;4952407;29;19962;-66
2020/12/13 03:27:39;;;;;;;;;;;;;;;;;;4952528;29;20021;-67
2020/12/13 03:30:06;;;;;;;;;;;;;;;;;;4951896;28;20056;-70
2020/12/13 03:32:35;;;;;;;;;;;;;;;;;;4954015;28;20017;-66
2020/12/13 03:35:03;;;;;;;;;;;;;;;;;;4953230;28;20206;-66
2020/12/13 03:37:30;;;;;;;;;;;;;;;;;;4952378;29;20337;-65
2020/12/13 03:39:57;;;;;;;;;;;;;;;;;;4951267;28;19927;-64
2020/12/13 03:42:24;;;;;;;;;;;;;;;;;;4962011;28;20445;-65
2020/12/13 03:44:51;;;;;;;;;;;;;;;;;;4950324;29;20028;-67
2020/12/13 03:47:18;;;;;;;;;;;;;;;;;;4952263;29;19927;-65
2020/12/13 03:49:46;;;;;;;;;;;;;;;;;;4951331;28;19949;-65
2020/12/13 03:52:13;;;;;;;;;;;;;;;;;;4952108;29;20022;-65
2020/12/13 03:54:40;;;;;;;;;;;;;;;;;;4946267;29;21536;-65
2020/12/13 03:57:07;;;;;;;;;;;;;;;;;;4941878;29;19930;-65
2020/12/13 03:59:34;;;;;;;;;;;;;;;;;;4957757;28;19930;-65
2020/12/13 04:02:04;;;;;;;;;;;;;;;;;;4958237;28;20017;-68
2020/12/13 04:04:31;;;;;;;;;;;;;;;;;;4957745;28;19973;-64
2020/12/13 04:06:58;;;;;;;;;;;;;;;;;;4957960;28;20053;-66
2020/12/13 04:09:26;;;;;;;;;;;;;;;;;;4958258;28;19966;-66
2020/12/13 04:11:53;;;;;;;;;;;;;;;;;;4958249;29;19930;-68
2020/12/13 04:14:20;;;;;;;;;;;;;;;;;;4957803;28;19981;-68
2020/12/13 04:16:47;;;;;;;;;;;;;;;;;;4958855;28;19937;-64
2020/12/13 04:19:15;;;;;;;;;;;;;;;;;;4957329;28;20444;-65
2020/12/13 04:21:42;;;;;;;;;;;;;;;;;;4959025;29;19927;-64
2020/12/13 04:24:10;;;;;;;;;;;;;;;;;;4958782;28;20004;-65
2020/12/13 04:26:41;;;;;;;;;;;;;;;;;;1450630;28;10022997;-65
2020/12/13 04:29:08;;;;;;;;;;;;;;;;;;3932313;28;10001229;-65
2020/12/13 04:31:36;;;;;;;;;;;;;;;;;;4938668;29;20625;-69
2020/12/13 04:34:03;;;;;;;;;;;;;;;;;;4939156;29;19946;-64
2020/12/13 04:36:30;;;;;;;;;;;;;;;;;;4938620;29;20501;-64
2020/12/13 04:38:57;;;;;;;;;;;;;;;;;;4934485;29;19937;-68
2020/12/13 04:41:24;;;;;;;;;;;;;;;;;;4956849;28;19937;-65
2020/12/13 04:43:51;;;;;;;;;;;;;;;;;;4957928;29;20005;-65
2020/12/13 04:46:18;;;;;;;;;;;;;;;;;;4958847;28;19937;-64
2020/12/13 04:48:46;;;;;;;;;;;;;;;;;;4958253;29;19931;-64
2020/12/13 04:51:13;;;;;;;;;;;;;;;;;;4941680;29;19930;-64
2020/12/13 04:53:40;;;;;;;;;;;;;;;;;;4938953;29;19937;-65
2020/12/13 04:56:07;;;;;;;;;;;;;;;;;;4931861;29;20366;-66
2020/12/13 04:58:34;;;;;;;;;;;;;;;;;;4939448;29;20025;-65
2020/12/13 05:01:02;;;;;;;;;;;;;;;;;;4938831;29;20392;-64
2020/12/13 05:03:29;;;;;;;;;;;;;;;;;;4938819;29;20454;-67
2020/12/13 05:05:58;;;;;;;;;;;;;;;;;;4926160;29;19983;-65
2020/12/13 05:08:25;;;;;;;;;;;;;;;;;;4939251;29;19966;-65
2020/12/13 05:10:52;;;;;;;;;;;;;;;;;;4934744;28;20288;-65
2020/12/13 05:13:19;;;;;;;;;;;;;;;;;;4936600;29;19933;-65
2020/12/13 05:15:47;;;;;;;;;;;;;;;;;;4936300;29;20034;-65
2020/12/13 05:18:14;;;;;;;;;;;;;;;;;;4936709;29;20036;-66
2020/12/13 05:20:41;;;;;;;;;;;;;;;;;;4943802;29;20014;-67
2020/12/13 05:23:08;;;;;;;;;;;;;;;;;;4935554;29;20401;-67
2020/12/13 05:25:36;;;;;;;;;;;;;;;;;;4935389;29;20391;-70
2020/12/13 05:28:03;;;;;;;;;;;;;;;;;;4925467;29;19958;-66
2020/12/13 05:30:32;;;;;;;;;;;;;;;;;;4933293;28;19927;-66
2020/12/13 05:32:59;;;;;;;;;;;;;;;;;;4929048;29;19937;-67
2020/12/13 05:35:26;;;;;;;;;;;;;;;;;;4935192;29;20614;-67
2020/12/13 05:37:54;;;;;;;;;;;;;;;;;;4936191;29;19937;-67
2020/12/13 05:40:21;;;;;;;;;;;;;;;;;;4944401;29;19945;-66
2020/12/13 05:42:55;;;;;;;;;;;;;;;;;;4954524;29;20039;-70
2020/12/13 05:45:33;;;;;;;;;;;;;;;;;;4952646;29;19927;-66
2020/12/13 05:48:25;;;;;;;;;;;;;;;;;;4955196;29;19934;-67
2020/12/13 05:51:00;;;;;;;;;;;;;;;;;;4945255;29;19926;-66
2020/12/13 05:53:27;;;;;;;;;;;;;;;;;;4951115;28;20009;-67
2020/12/13 05:55:56;;;;;;;;;;;;;;;;;;4953012;29;19937;-70
2020/12/13 05:58:24;;;;;;;;;;;;;;;;;;4954165;29;19931;-67
2020/12/13 06:00:52;;;;;;;;;;;;;;;;;;4944319;29;19926;-66
2020/12/13 06:03:19;;;;;;;;;;;;;;;;;;4952941;29;19930;-69
2020/12/13 06:05:46;;;;;;;;;;;;;;;;;;4940618;29;19951;-67
2020/12/13 06:08:13;;;;;;;;;;;;;;;;;;4954155;29;20345;-66
2020/12/13 06:10:40;;;;;;;;;;;;;;;;;;4959672;28;19937;-69
2020/12/13 06:13:07;;;;;;;;;;;;;;;;;;4951193;29;20021;-69
2020/12/13 06:15:35;;;;;;;;;;;;;;;;;;4954285;29;19930;-70
2020/12/13 06:18:02;;;;;;;;;;;;;;;;;;4953714;29;19930;-66
2020/12/13 06:20:29;;;;;;;;;;;;;;;;;;4952723;28;20263;-68
2020/12/13 06:22:57;;;;;;;;;;;;;;;;;;4954287;29;19933;-68
2020/12/13 06:25:24;;;;;;;;;;;;;;;;;;4953734;29;19930;-69
2020/12/13 06:27:51;;;;;;;;;;;;;;;;;;4953835;29;19926;-67
2020/12/13 06:30:18;;;;;;;;;;;;;;;;;;4953823;28;19926;-67
2020/12/13 06:32:46;;;;;;;;;;;;;;;;;;4953838;29;19938;-67
2020/12/13 06:35:14;;;;;;;;;;;;;;;;;;4953635;29;19930;-67
2020/12/13 06:37:41;;;;;;;;;;;;;;;;;;4953401;29;20025;-67
2020/12/13 06:40:08;;;;;;;;;;;;;;;;;;4950128;28;19931;-73
2020/12/13 06:42:39;;;;;;;;;;;;;;;;;;4947072;29;20022;-70
2020/12/13 06:45:06;;;;;;;;;;;;;;;;;;4946865;29;19930;-70
2020/12/13 06:47:33;;;;;;;;;;;;;;;;;;4943473;29;20025;-69
2020/12/13 06:50:00;;;;;;;;;;;;;;;;;;4949031;28;19933;-65
2020/12/13 06:52:27;;;;;;;;;;;;;;;;;;4949122;29;19981;-67
2020/12/13 06:54:54;;;;;;;;;;;;;;;;;;4949589;29;20359;-65
2020/12/13 06:57:21;;;;;;;;;;;;;;;;;;4950776;28;20049;-68
2020/12/13 06:59:49;;;;;;;;;;;;;;;;;;4949929;28;20341;-67
2020/12/13 07:02:16;;;;;;;;;;;;;;;;;;4947628;29;19934;-65
2020/12/13 07:04:46;;;;;;;;;;;;;;;;;;4945656;29;19937;-65
2020/12/13 07:07:17;;;;;;;;;;;;;;;;;;4947483;29;20017;-71
2020/12/13 07:09:44;;;;;;;;;;;;;;;;;;4948599;28;20375;-65
2020/12/13 07:12:11;;;;;;;;;;;;;;;;;;4946644;29;19938;-65
2020/12/13 07:14:39;;;;;;;;;;;;;;;;;;4945215;28;19930;-70
2020/12/13 07:17:08;;;;;;;;;;;;;;;;;;4948636;29;20394;-69
2020/12/13 07:19:35;;;;;;;;;;;;;;;;;;4949586;28;19930;-65
2020/12/13 07:22:02;;;;;;;;;;;;;;;;;;4946908;29;19935;-67
2020/12/13 07:24:29;;;;;;;;;;;;;;;;;;4946995;29;19931;-71
2020/12/13 07:26:56;;;;;;;;;;;;;;;;;;4947706;29;20020;-67
2020/12/13 07:29:23;;;;;;;;;;;;;;;;;;4948755;28;19931;-69
2020/12/13 07:31:50;;;;;;;;;;;;;;;;;;4948726;29;20009;-68
2020/12/13 07:34:18;;;;;;;;;;;;;;;;;;4946632;28;19930;-68
2020/12/13 07:36:45;;;;;;;;;;;;;;;;;;4948902;29;19926;-68
2020/12/13 07:39:13;;;;;;;;;;;;;;;;;;4943886;28;19930;-68
2020/12/13 07:41:40;;;;;;;;;;;;;;;;;;4947861;29;20317;-71
2020/12/13 07:44:07;;;;;;;;;;;;;;;;;;4949140;29;20027;-68
2020/12/13 07:46:34;;;;;;;;;;;;;;;;;;4950679;28;19933;-67
2020/12/13 07:49:01;;;;;;;;;;;;;;;;;;4949206;28;19930;-68
2020/12/13 07:51:29;;;;;;;;;;;;;;;;;;4946981;28;19926;-68
2020/12/13 07:53:56;;;;;;;;;;;;;;;;;;4948562;29;19934;-69
2020/12/13 07:56:23;;;;;;;;;;;;;;;;;;4945630;29;19953;-69
2020/12/13 07:58:50;;;;;;;;;;;;;;;;;;4947980;29;19930;-67
2020/12/13 08:01:17;;;;;;;;;;;;;;;;;;4947717;28;20041;-68
2020/12/13 08:03:44;;;;;;;;;;;;;;;;;;4947575;29;19964;-68
2020/12/13 08:06:11;;;;;;;;;;;;;;;;;;4948169;29;20714;-68
2020/12/13 08:08:39;;;;;;;;;;;;;;;;;;4941173;29;19934;-68
2020/12/13 08:11:06;;;;;;;;;;;;;;;;;;4948599;28;20424;-68
2020/12/13 08:13:33;;;;;;;;;;;;;;;;;;4947422;29;20224;-67
2020/12/13 08:16:00;;;;;;;;;;;;;;;;;;4950005;29;20341;-67
2020/12/13 08:18:27;;;;;;;;;;;;;;;;;;4952131;29;19931;-66
2020/12/13 08:20:54;;;;;;;;;;;;;;;;;;4951910;28;20025;-66
2020/12/13 08:23:21;;;;;;;;;;;;;;;;;;4951838;29;20018;-68
2020/12/13 08:25:48;;;;;;;;;;;;;;;;;;4952310;29;20378;-66
2020/12/13 08:28:15;;;;;;;;;;;;;;;;;;4952632;29;19934;-66
2020/12/13 08:30:43;;;;;;;;;;;;;;;;;;4952071;28;19933;-71
2020/12/13 08:33:10;;;;;;;;;;;;;;;;;;4952135;29;19931;-70
2020/12/13 08:35:37;;;;;;;;;;;;;;;;;;4952052;29;20035;-75
2020/12/13 08:38:04;;;;;;;;;;;;;;;;;;4953903;28;20688;-67
2020/12/13 08:40:31;;;;;;;;;;;;;;;;;;4951238;28;19927;-69
2020/12/13 08:42:58;;;;;;;;;;;;;;;;;;4947997;29;20212;-68
2020/12/13 08:45:25;;;;;;;;;;;;;;;;;;4953982;28;19980;-69
2020/12/13 08:47:59;;;;;;;;;;;;;;;;;;4954556;29;20718;-74
2020/12/13 08:50:26;;;;;;;;;;;;;;;;;;4954898;28;20410;-69
2020/12/13 08:52:53;;;;;;;;;;;;;;;;;;4954851;29;19930;-68
2020/12/13 08:55:20;;;;;;;;;;;;;;;;;;4956027;29;19989;-67
2020/12/13 08:57:48;;;;;;;;;;;;;;;;;;4954636;29;20009;-76
2020/12/13 09:00:15;;;;;;;;;;;;;;;;;;4954186;28;20370;-68
2020/12/13 09:02:44;;;;;;;;;;;;;;;;;;4947574;29;19931;-76
2020/12/13 09:05:11;;;;;;;;;;;;;;;;;;4954801;29;19931;-67
2020/12/13 09:07:38;;;;;;;;;;;;;;;;;;4954392;29;20033;-71
2020/12/13 09:10:05;;;;;;;;;;;;;;;;;;4954974;28;20021;-67
2020/12/13 09:12:32;;;;;;;;;;;;;;;;;;4964229;28;19931;-68
2020/12/13 09:14:59;;;;;;;;;;;;;;;;;;4954793;29;20021;-67
2020/12/13 09:17:26;;;;;;;;;;;;;;;;;;4954901;28;20390;-67
2020/12/13 09:19:55;;;;;;;;;;;;;;;;;;4953915;28;19930;-69
2020/12/13 09:22:22;;;;;;;;;;;;;;;;;;4954669;29;19974;-74
2020/12/13 09:24:49;;;;;;;;;;;;;;;;;;4954659;29;19984;-73
2020/12/13 09:27:18;;;;;;;;;;;;;;;;;;4954610;29;20012;-68
2020/12/13 09:29:46;;;;;;;;;;;;;;;;;;4959836;28;20301;-68
2020/12/13 09:32:13;;;;;;;;;;;;;;;;;;4953900;29;19926;-67
2020/12/13 09:34:40;;;;;;;;;;;;;;;;;;4954541;29;19933;-72
2020/12/13 09:37:07;;;;;;;;;;;;;;;;;;4954982;29;20289;-80
2020/12/13 09:39:34;;;;;;;;;;;;;;;;;;4954298;28;19926;-68
2020/12/13 09:42:01;;;;;;;;;;;;;;;;;;4954468;29;20013;-68
2020/12/13 09:44:29;;;;;;;;;;;;;;;;;;4952153;29;20437;-69
2020/12/13 09:46:57;;;;;;;;;;;;;;;;;;4950457;29;19985;-72
2020/12/13 09:49:24;;;;;;;;;;;;;;;;;;4945473;28;20374;-74
2020/12/13 09:51:51;;;;;;;;;;;;;;;;;;4951586;29;20017;-73
2020/12/13 09:54:19;;;;;;;;;;;;;;;;;;4951338;29;19930;-70
2020/12/13 09:56:46;;;;;;;;;;;;;;;;;;4951455;28;20369;-69
2020/12/13 09:59:13;;;;;;;;;;;;;;;;;;4950890;28;20017;-75
2020/12/13 10:01:40;;;;;;;;;;;;;;;;;;4951150;29;19934;-68
2020/12/13 10:04:08;;;;;;;;;;;;;;;;;;4949939;29;19933;-70
2020/12/13 10:09:26;;;;;;;;;;;;;;;;;;4948259;28;20057;-73
2020/12/13 10:11:53;;;;;;;;;;;;;;;;;;4951095;28;19935;-71
2020/12/13 10:14:21;;;;;;;;;;;;;;;;;;4950652;29;19930;-76
2020/12/13 10:16:48;;;;;;;;;;;;;;;;;;4950521;29;19936;-69
2020/12/13 10:19:15;;;;;;;;;;;;;;;;;;4952381;28;19937;-78
2020/12/13 10:21:43;;;;;;;;;;;;;;;;;;4950334;29;19930;-69
2020/12/13 10:24:10;;;;;;;;;;;;;;;;;;4950327;29;19926;-69
2020/12/13 10:26:38;;;;;;;;;;;;;;;;;;4951845;28;20046;-72
2020/12/13 10:29:05;;;;;;;;;;;;;;;;;;4950639;29;19927;-69
2020/12/13 10:31:32;;;;;;;;;;;;;;;;;;4949759;28;19930;-67
2020/12/13 10:34:00;;;;;;;;;;;;;;;;;;4948964;28;19937;-67
2020/12/13 10:36:27;;;;;;;;;;;;;;;;;;4947936;29;20033;-74
2020/12/13 10:38:54;;;;;;;;;;;;;;;;;;4950766;29;20459;-69
2020/12/13 10:41:21;;;;;;;;;;;;;;;;;;4949553;28;19930;-69
2020/12/13 10:43:48;;;;;;;;;;;;;;;;;;4951059;29;20402;-71
2020/12/13 10:46:16;;;;;;;;;;;;;;;;;;4951053;29;19936;-68
2020/12/13 10:48:44;;;;;;;;;;;;;;;;;;4946570;28;20180;-69
2020/12/13 10:51:11;;;;;;;;;;;;;;;;;;4944811;28;20037;-68
2020/12/13 10:53:38;;;;;;;;;;;;;;;;;;4952775;28;20041;-71
2020/12/13 10:56:05;;;;;;;;;;;;;;;;;;4949376;29;19930;-70
2020/12/13 10:58:32;;;;;;;;;;;;;;;;;;4952390;28;20334;-75
2020/12/13 11:01:01;;;;;;;;;;;;;;;;;;4947426;28;20437;-75
2020/12/13 11:03:28;;;;;;;;;;;;;;;;;;4948336;29;19966;-71
2020/12/13 11:05:55;;;;;;;;;;;;;;;;;;4948269;29;19930;-68
2020/12/13 11:08:26;;;;;;;;;;;;;;;;;;4948470;28;19930;-68
2020/12/13 11:10:53;;;;;;;;;;;;;;;;;;4951961;28;19960;-67
2020/12/13 11:13:20;;;;;;;;;;;;;;;;;;4943785;29;20009;-73
2020/12/13 11:15:48;;;;;;;;;;;;;;;;;;4943338;29;20198;-79
2020/12/13 11:18:15;;;;;;;;;;;;;;;;;;4946970;28;19974;-71
2020/12/13 11:20:42;;;;;;;;;;;;;;;;;;4947011;28;19977;-77
2020/12/13 11:23:09;;;;;;;;;;;;;;;;;;4950042;29;19937;-71
2020/12/13 11:25:37;;;;;;;;;;;;;;;;;;4950311;29;19935;-69
2020/12/13 11:28:05;;;;;;;;;;;;;;;;;;4950313;28;20009;-70
2020/12/13 11:30:33;;;;;;;;;;;;;;;;;;4950304;28;19926;-68
2020/12/13 11:33:00;;;;;;;;;;;;;;;;;;4950178;29;20382;-67
2020/12/13 11:35:27;;;;;;;;;;;;;;;;;;4950069;29;19963;-67
2020/12/13 11:37:54;;;;;;;;;;;;;;;;;;4950051;29;20392;-67
2020/12/13 11:40:21;;;;;;;;;;;;;;;;;;4942582;28;19951;-69
2020/12/13 11:42:48;;;;;;;;;;;;;;;;;;4948046;29;19930;-67
2020/12/13 11:45:15;;;;;;;;;;;;;;;;;;4959081;28;20032;-69
2020/12/13 11:47:43;;;;;;;;;;;;;;;;;;4945717;29;19964;-67
2020/12/13 11:50:11;;;;;;;;;;;;;;;;;;4945885;28;20361;-80
2020/12/13 11:52:38;;;;;;;;;;;;;;;;;;4935215;28;19927;-72
2020/12/13 11:55:05;;;;;;;;;;;;;;;;;;4947036;29;19931;-69
2020/12/13 11:57:32;;;;;;;;;;;;;;;;;;4948915;29;20021;-67
2020/12/13 12:00:14;;;;;;;;;;;;;;;;;;4938228;28;19938;-70
2020/12/13 12:02:41;;;;;;;;;;;;;;;;;;4946955;28;19930;-72
2020/12/13 12:05:08;;;;;;;;;;;;;;;;;;4943534;29;19982;-79
2020/12/13 12:07:35;;;;;;;;;;;;;;;;;;4943442;28;19930;-77
2020/12/13 12:10:02;;;;;;;;;;;;;;;;;;4946109;28;19931;-70
2020/12/13 12:12:30;;;;;;;;;;;;;;;;;;4946584;29;20406;-71
2020/12/13 12:14:57;;;;;;;;;;;;;;;;;;4943153;29;20029;-77
2020/12/13 12:17:24;;;;;;;;;;;;;;;;;;4941927;29;19937;-77
2020/12/13 12:19:52;;;;;;;;;;;;;;;;;;4945889;28;20000;-69
2020/12/13 12:22:19;;;;;;;;;;;;;;;;;;4940468;29;19930;-70
2020/12/13 12:24:46;;;;;;;;;;;;;;;;;;4949028;29;19930;-67
2020/12/13 12:27:13;;;;;;;;;;;;;;;;;;4952419;29;20032;-80
2020/12/13 12:29:41;;;;;;;;;;;;;;;;;;4950889;28;20026;-71
2020/12/13 12:32:08;;;;;;;;;;;;;;;;;;4950393;29;19970;-70
2020/12/13 12:34:35;;;;;;;;;;;;;;;;;;4951085;29;19927;-70
2020/12/13 12:37:02;;;;;;;;;;;;;;;;;;4950790;29;20438;-69
2020/12/13 12:39:30;;;;;;;;;;;;;;;;;;4949463;28;21464;-78
2020/12/13 12:41:57;;;;;;;;;;;;;;;;;;4951665;29;19930;-69
2020/12/13 12:44:24;;;;;;;;;;;;;;;;;;4951646;29;19977;-71
2020/12/13 12:46:51;;;;;;;;;;;;;;;;;;4952095;29;20017;-68
2020/12/13 12:49:18;;;;;;;;;;;;;;;;;;4947472;28;20453;-71
2020/12/13 12:51:45;;;;;;;;;;;;;;;;;;4951464;29;19930;-77
2020/12/13 12:54:12;;;;;;;;;;;;;;;;;;4953480;29;19931;-69
2020/12/13 12:56:40;;;;;;;;;;;;;;;;;;4951374;28;19930;-68
2020/12/13 12:59:10;;;;;;;;;;;;;;;;;;4962042;28;19935;-68
2020/12/13 13:01:39;;;;;;;;;;;;;;;;;;4931360;29;20568;-68
2020/12/13 13:04:10;;;;;;;;;;;;;;;;;;4930971;29;19942;-71
2020/12/13 13:09:30;;;;;;;;;;;;;;;;;;4924039;29;19934;-74
2020/12/13 13:11:57;;;;;;;;;;;;;;;;;;4934170;29;20029;-68
2020/12/13 13:14:24;;;;;;;;;;;;;;;;;;4934146;29;20017;-73
2020/12/13 13:16:59;;;;;;;;;;;;;;;;;;4921115;29;19927;-68
2020/12/13 13:19:26;;;;;;;;;;;;;;;;;;4917017;29;19927;-68
2020/12/13 13:21:53;;;;;;;;;;;;;;;;;;4929999;29;19931;-72
2020/12/13 13:24:21;;;;;;;;;;;;;;;;;;4933595;29;19941;-68
2020/12/13 13:26:48;;;;;;;;;;;;;;;;;;4929155;29;19937;-78
2020/12/13 13:29:15;;;;;;;;;;;;;;;;;;4930959;29;20022;-68
2020/12/13 13:31:42;;;;;;;;;;;;;;;;;;4932317;29;19978;-67
2020/12/13 13:34:09;;;;;;;;;;;;;;;;;;4934342;29;19934;-70
2020/12/13 13:36:37;;;;;;;;;;;;;;;;;;4934212;29;19974;-68
2020/12/13 13:39:04;;;;;;;;;;;;;;;;;;4935197;29;20021;-68
2020/12/13 13:41:33;;;;;;;;;;;;;;;;;;4933631;29;20389;-67
2020/12/13 13:44:03;;;;;;;;;;;;;;;;;;4935001;29;20305;-68
2020/12/13 13:46:48;;;;;;;;;;;;;;;;;;4935285;29;19954;-71
2020/12/13 13:49:33;;;;;;;;;;;;;;;;;;4930884;29;19930;-68
2020/12/13 13:52:00;;;;;;;;;;;;;;;;;;4924545;29;19930;-72
2020/12/13 13:54:28;;;;;;;;;;;;;;;;;;4931584;29;19974;-67
2020/12/13 13:56:58;;;;;;;;;;;;;;;;;;4933212;29;20226;-68
2020/12/13 13:59:28;;;;;;;;;;;;;;;;;;4926057;29;20028;-69
2020/12/13 14:01:55;;;;;;;;;;;;;;;;;;4951179;29;19926;-70
2020/12/13 14:04:23;;;;;;;;;;;;;;;;;;4953782;29;19944;-71
2020/12/13 14:09:44;;;;;;;;;;;;;;;;;;5098334;27;20390;-74
2020/12/13 14:12:11;;;;;;;;;;;;;;;;;;5084228;28;20406;-66
2020/12/13 14:14:38;;;;;;;;;;;;;;;;;;5080711;28;19975;-71
2020/12/13 14:17:05;;;;;;;;;;;;;;;;;;5078967;28;20016;-67
2020/12/13 14:19:32;;;;;;;;;;;;;;;;;;5076895;28;19945;-76
2020/12/13 14:22:00;;;;;;;;;;;;;;;;;;5059275;28;19968;-68
2020/12/13 14:24:27;;;;;;;;;;;;;;;;;;5063951;28;19979;-69
2020/12/13 14:26:54;;;;;;;;;;;;;;;;;;5059709;28;19928;-69
2020/12/13 14:29:23;;;;;;;;;;;;;;;;;;5059081;28;20516;-66
2020/12/13 14:31:51;;;;;;;;;;;;;;;;;;5065103;28;19933;-66
2020/12/13 14:34:18;;;;;;;;;;;;;;;;;;5062253;28;19932;-66
2020/12/13 14:36:46;;;;;;;;;;;;;;;;;;5066591;28;19940;-68
2020/12/13 14:39:14;;;;;;;;;;;;;;;;;;5068417;28;19934;-69
2020/12/13 14:41:41;;;;;;;;;;;;;;;;;;5055772;28;20023;-67
2020/12/13 14:44:09;;;;;;;;;;;;;;;;;;5065316;28;20012;-75
2020/12/13 14:46:36;;;;;;;;;;;;;;;;;;5060858;28;19933;-70
2020/12/13 14:49:03;;;;;;;;;;;;;;;;;;5063614;28;19925;-68
2020/12/13 14:51:32;;;;;;;;;;;;;;;;;;5056352;28;19983;-71
2020/12/13 14:53:59;;;;;;;;;;;;;;;;;;5057082;28;19924;-68
2020/12/13 14:56:26;;;;;;;;;;;;;;;;;;5057543;28;20023;-69
2020/12/13 14:58:55;;;;;;;;;;;;;;;;;;5062432;28;19928;-68
2020/12/13 15:01:22;;;;;;;;;;;;;;;;;;5064188;28;19952;-68
2020/12/13 15:03:49;;;;;;;;;;;;;;;;;;5060804;28;20372;-68
2020/12/13 15:06:17;;;;;;;;;;;;;;;;;;5057089;28;19940;-73
2020/12/13 15:08:44;;;;;;;;;;;;;;;;;;5061220;28;20476;-67
2020/12/13 15:11:11;;;;;;;;;;;;;;;;;;5060787;28;20047;-73
2020/12/13 15:13:41;;;;;;;;;;;;;;;;;;5061596;28;19929;-74
2020/12/13 15:16:17;;;;;;;;;;;;;;;;;;5054349;28;20384;-72
2020/12/13 15:18:44;;;;;;;;;;;;;;;;;;5061650;28;19929;-71
2020/12/13 15:21:11;;;;;;;;;;;;;;;;;;5037201;28;20388;-67
2020/12/13 15:23:39;;;;;;;;;;;;;;;;;;5042509;28;20107;-73
2020/12/13 15:26:06;;;;;;;;;;;;;;;;;;5049925;28;20047;-70
2020/12/13 15:28:34;;;;;;;;;;;;;;;;;;5039786;28;19928;-72
2020/12/13 15:31:01;;;;;;;;;;;;;;;;;;5048327;28;20014;-69
2020/12/13 15:33:28;;;;;;;;;;;;;;;;;;5039917;28;19932;-72
2020/12/13 15:35:55;;;;;;;;;;;;;;;;;;5050223;28;19975;-74
2020/12/13 15:38:22;;;;;;;;;;;;;;;;;;5044784;28;19925;-68
2020/12/13 15:40:49;;;;;;;;;;;;;;;;;;5047786;28;20447;-70
2020/12/13 15:43:19;;;;;;;;;;;;;;;;;;5041086;28;19976;-67
2020/12/13 15:45:46;;;;;;;;;;;;;;;;;;5043661;28;20058;-69
2020/12/13 15:48:13;;;;;;;;;;;;;;;;;;5048731;28;19962;-68
2020/12/13 15:50:44;;;;;;;;;;;;;;;;;;5058046;28;19963;-69
2020/12/13 15:53:11;;;;;;;;;;;;;;;;;;5051149;28;19933;-70
2020/12/13 15:55:39;;;;;;;;;;;;;;;;;;5058458;28;19929;-73
2020/12/13 15:58:06;;;;;;;;;;;;;;;;;;5069928;28;19997;-68
2020/12/13 16:00:33;;;;;;;;;;;;;;;;;;5056249;28;20443;-74
2020/12/13 16:03:01;;;;;;;;;;;;;;;;;;5037812;28;20039;-71
2020/12/13 16:05:30;;;;;;;;;;;;;;;;;;5044357;28;19932;-73
2020/12/13 16:07:59;;;;;;;;;;;;;;;;;;5040768;28;19929;-71
2020/12/13 16:10:26;;;;;;;;;;;;;;;;;;5047960;28;20001;-68
2020/12/13 16:13:00;;;;;;;;;;;;;;;;;;5039976;28;19928;-73
2020/12/13 16:15:28;;;;;;;;;;;;;;;;;;5042953;28;20380;-68
2020/12/13 16:17:55;;;;;;;;;;;;;;;;;;5037548;28;19925;-66
2020/12/13 16:20:23;;;;;;;;;;;;;;;;;;5046890;28;20050;-74
2020/12/13 16:22:55;;;;;;;;;;;;;;;;;;5045647;28;20019;-68
2020/12/13 16:25:22;;;;;;;;;;;;;;;;;;5041878;28;19936;-72
2020/12/13 16:27:50;;;;;;;;;;;;;;;;;;5041221;28;19983;-80
2020/12/13 16:30:17;;;;;;;;;;;;;;;;;;5038870;28;19933;-78
2020/12/13 16:32:45;;;;;;;;;;;;;;;;;;5041423;28;19935;-74
2020/12/13 16:35:12;;;;;;;;;;;;;;;;;;5043986;28;19936;-67
2020/12/13 16:37:40;;;;;;;;;;;;;;;;;;5032515;28;20272;-73
2020/12/13 16:40:10;;;;;;;;;;;;;;;;;;5036674;28;19933;-69
2020/12/13 16:42:44;;;;;;;;;;;;;;;;;;5034387;28;19963;-70
2020/12/13 16:45:13;;;;;;;;;;;;;;;;;;5037811;28;20371;-73
2020/12/13 16:47:48;;;;;;;;;;;;;;;;;;5028743;28;20306;-69
2020/12/13 16:50:27;;;;;;;;;;;;;;;;;;5032719;28;19932;-68
2020/12/13 16:55:30;;;;;;;;;;;;;;;;;;5033495;28;19929;-69
2020/12/13 16:57:58;;;;;;;;;;;;;;;;;;5032974;28;20015;-71
2020/12/13 17:00:26;;;;;;;;;;;;;;;;;;5030288;28;20045;-75
2020/12/13 17:02:53;;;;;;;;;;;;;;;;;;5028488;28;19929;-73